Terminal Aerodrome Forecast
Issued by NWS

Home | Current Version | Previous Version | Text Only | Print | Product List | Glossary On
Versions: 1 2 3 4 5 6 7 8 9 10 11 12 13 14 15 16 17
174
FTUS41 KCAR 141730
TAFFVE
TAF
KFVE 141730Z 1418/1518 29018G23KT P6SM BKN025
     FM142300 28012KT P6SM BKN060
     FM151000 28008KT P6SM SCT250=

USA.gov is the U.S. government's official web portal to all federal, state and local government web resources and services.